Terminal Aerodrome Forecast
Issued by NWS

Home | Current Version | Previous Version | Text Only | Print | Product List | Glossary On
Versions: 1 2 3 4 5 6 7 8 9 10 11
000
FTUS46 KHNX 302320
TAFFAT
TAF
KFAT 302320Z 3100/3124 33010KT P6SM SCT150 SCT200 BKN250
      TEMPO 3102/3104 32010G18KT
     FM310500 32006KT P6SM SKC
     FM311100 VRB03KT P6SM SKC
     FM312200 32009KT P6SM SKC=

USA.gov is the U.S. government's official web portal to all federal, state and local government web resources and services.